sensor_id;sensor_type;location;lat;lon;timestamp;pressure;altitude;pressure_sealevel;temperature;humidity
75312;BME280;63906;55.686;37.532;2023-04-06T00:03:29;100178.97;;;5.76;67.11
75312;BME280;63906;55.686;37.532;2023-04-06T00:08:29;100156.63;;;5.63;67.06
75312;BME280;63906;55.686;37.532;2023-04-06T00:13:30;100153.56;;;5.78;66.85
75312;BME280;63906;55.686;37.532;2023-04-06T00:18:30;100177.31;;;5.84;66.83
75312;BME280;63906;55.686;37.532;2023-04-06T00:23:31;100181.94;;;5.90;66.73
75312;BME280;63906;55.686;37.532;2023-04-06T00:28:32;100154.31;;;5.60;66.77
75312;BME280;63906;55.686;37.532;2023-04-06T00:33:32;100148.31;;;5.50;66.77
75312;BME280;63906;55.686;37.532;2023-04-06T00:38:33;100171.31;;;5.64;67.40
75312;BME280;63906;55.686;37.532;2023-04-06T00:43:33;100155.50;;;5.38;67.52
75312;BME280;63906;55.686;37.532;2023-04-06T00:48:34;100180.69;;;5.57;67.39
75312;BME280;63906;55.686;37.532;2023-04-06T00:53:35;100181.34;;;5.32;67.61
75312;BME280;63906;55.686;37.532;2023-04-06T00:58:35;100178.88;;;5.30;68.06
75312;BME280;63906;55.686;37.532;2023-04-06T01:03:38;100177.50;;;5.36;68.48
75312;BME280;63906;55.686;37.532;2023-04-06T01:08:39;100181.53;;;5.58;67.97
75312;BME280;63906;55.686;37.532;2023-04-06T01:13:40;100174.56;;;5.49;67.41
75312;BME280;63906;55.686;37.532;2023-04-06T01:18:40;100156.94;;;5.13;68.59
75312;BME280;63906;55.686;37.532;2023-04-06T01:23:44;100168.19;;;5.14;68.87
75312;BME280;63906;55.686;37.532;2023-04-06T01:28:45;100162.56;;;5.09;68.78
75312;BME280;63906;55.686;37.532;2023-04-06T01:33:46;100157.13;;;4.93;69.36
75312;BME280;63906;55.686;37.532;2023-04-06T01:38:47;100145.47;;;4.77;69.28
75312;BME280;63906;55.686;37.532;2023-04-06T01:43:48;100177.19;;;4.82;69.47
75312;BME280;63906;55.686;37.532;2023-04-06T01:48:49;100179.25;;;4.69;70.30
75312;BME280;63906;55.686;37.532;2023-04-06T01:53:49;100172.53;;;4.76;70.11
75312;BME280;63906;55.686;37.532;2023-04-06T01:58:50;100164.03;;;4.74;70.05
75312;BME280;63906;55.686;37.532;2023-04-06T02:03:50;100176.22;;;4.83;69.87
75312;BME280;63906;55.686;37.532;2023-04-06T02:08:51;100132.59;;;4.47;70.23
75312;BME280;63906;55.686;37.532;2023-04-06T02:13:51;100188.72;;;4.80;70.46
75312;BME280;63906;55.686;37.532;2023-04-06T02:18:52;100187.38;;;4.66;70.09
75312;BME280;63906;55.686;37.532;2023-04-06T02:23:52;100197.25;;;4.72;70.27
75312;BME280;63906;55.686;37.532;2023-04-06T02:28:54;100180.50;;;4.55;70.97
75312;BME280;63906;55.686;37.532;2023-04-06T02:33:54;100188.06;;;4.49;71.00
75312;BME280;63906;55.686;37.532;2023-04-06T02:38:55;100205.34;;;4.50;70.54
75312;BME280;63906;55.686;37.532;2023-04-06T02:43:55;100149.63;;;4.12;70.88
75312;BME280;63906;55.686;37.532;2023-04-06T02:48:56;100211.09;;;4.44;71.18
75312;BME280;63906;55.686;37.532;2023-04-06T02:53:57;100201.50;;;4.54;71.18
75312;BME280;63906;55.686;37.532;2023-04-06T02:58:57;100212.75;;;4.64;70.30
75312;BME280;63906;55.686;37.532;2023-04-06T03:03:58;100205.91;;;4.53;70.20
75312;BME280;63906;55.686;37.532;2023-04-06T03:08:58;100219.47;;;4.57;70.77
75312;BME280;63906;55.686;37.532;2023-04-06T03:13:59;100219.75;;;4.54;70.75
75312;BME280;63906;55.686;37.532;2023-04-06T03:18:59;100223.03;;;4.56;70.86
75312;BME280;63906;55.686;37.532;2023-04-06T03:24:00;100209.16;;;4.46;70.72
75312;BME280;63906;55.686;37.532;2023-04-06T03:29:00;100154.53;;;4.15;70.54
75312;BME280;63906;55.686;37.532;2023-04-06T03:34:01;100207.25;;;4.38;70.87
75312;BME280;63906;55.686;37.532;2023-04-06T03:39:01;100234.44;;;4.55;70.29
75312;BME280;63906;55.686;37.532;2023-04-06T03:44:02;100164.56;;;4.20;70.32
75312;BME280;63906;55.686;37.532;2023-04-06T03:49:02;100177.47;;;4.41;69.84
75312;BME280;63906;55.686;37.532;2023-04-06T03:54:03;100243.22;;;4.64;70.32
75312;BME280;63906;55.686;37.532;2023-04-06T03:59:04;100254.75;;;4.80;69.93
75312;BME280;63906;55.686;37.532;2023-04-06T04:04:05;100259.16;;;4.99;69.14
75312;BME280;63906;55.686;37.532;2023-04-06T04:09:05;100247.88;;;4.99;69.23
75312;BME280;63906;55.686;37.532;2023-04-06T04:14:06;100265.72;;;5.13;68.31
75312;BME280;63906;55.686;37.532;2023-04-06T04:19:07;100264.06;;;5.12;68.75
75312;BME280;63906;55.686;37.532;2023-04-06T04:24:09;100245.81;;;5.12;68.31
75312;BME280;63906;55.686;37.532;2023-04-06T04:29:09;100247.03;;;5.08;67.42
75312;BME280;63906;55.686;37.532;2023-04-06T04:34:10;100272.31;;;5.17;68.16
75312;BME280;63906;55.686;37.532;2023-04-06T04:39:10;100281.09;;;5.26;68.07
75312;BME280;63906;55.686;37.532;2023-04-06T04:44:11;100264.88;;;5.32;67.44
75312;BME280;63906;55.686;37.532;2023-04-06T04:49:11;100242.06;;;5.34;67.38
75312;BME280;63906;55.686;37.532;2023-04-06T04:54:12;100246.19;;;5.27;67.29
75312;BME280;63906;55.686;37.532;2023-04-06T04:59:12;100269.78;;;5.45;67.60
75312;BME280;63906;55.686;37.532;2023-04-06T05:04:13;100247.63;;;5.58;66.37
75312;BME280;63906;55.686;37.532;2023-04-06T05:09:13;100265.34;;;5.64;66.17
75312;BME280;63906;55.686;37.532;2023-04-06T05:14:14;100269.19;;;5.70;66.44
75312;BME280;63906;55.686;37.532;2023-04-06T05:19:15;100196.44;;;5.38;66.37
75312;BME280;63906;55.686;37.532;2023-04-06T05:24:16;100251.38;;;5.83;65.27
75312;BME280;63906;55.686;37.532;2023-04-06T05:29:16;100265.44;;;5.92;66.13
75312;BME280;63906;55.686;37.532;2023-04-06T05:34:18;100272.13;;;5.94;65.79
75312;BME280;63906;55.686;37.532;2023-04-06T05:39:21;100255.88;;;6.01;65.72
75312;BME280;63906;55.686;37.532;2023-04-06T05:44:22;100275.06;;;6.19;65.29
75312;BME280;63906;55.686;37.532;2023-04-06T05:49:22;100281.91;;;6.30;64.96
75312;BME280;63906;55.686;37.532;2023-04-06T05:54:23;100275.19;;;6.45;63.90
75312;BME280;63906;55.686;37.532;2023-04-06T05:59:23;100240.66;;;6.24;64.22
75312;BME280;63906;55.686;37.532;2023-04-06T06:04:24;100240.06;;;6.30;63.80
75312;BME280;63906;55.686;37.532;2023-04-06T06:09:25;100285.19;;;6.77;62.78
75312;BME280;63906;55.686;37.532;2023-04-06T06:14:26;100274.41;;;6.80;63.42
75312;BME280;63906;55.686;37.532;2023-04-06T06:19:28;100247.41;;;6.80;62.40
75312;BME280;63906;55.686;37.532;2023-04-06T06:24:29;100243.66;;;6.82;61.81
75312;BME280;63906;55.686;37.532;2023-04-06T06:29:31;100262.44;;;6.95;62.84
75312;BME280;63906;55.686;37.532;2023-04-06T06:34:32;100276.63;;;7.28;61.33
75312;BME280;63906;55.686;37.532;2023-04-06T06:39:32;100262.72;;;7.28;61.81
75312;BME280;63906;55.686;37.532;2023-04-06T06:44:33;100258.34;;;7.63;60.16
75312;BME280;63906;55.686;37.532;2023-04-06T06:49:33;100249.81;;;7.61;60.55
75312;BME280;63906;55.686;37.532;2023-04-06T06:54:34;100266.50;;;7.86;60.30
75312;BME280;63906;55.686;37.532;2023-04-06T06:59:34;100241.63;;;7.90;59.08
75312;BME280;63906;55.686;37.532;2023-04-06T07:04:35;100247.44;;;8.09;58.79
75312;BME280;63906;55.686;37.532;2023-04-06T07:09:35;100249.63;;;8.30;58.75
75312;BME280;63906;55.686;37.532;2023-04-06T07:14:36;100259.41;;;8.62;57.68
75312;BME280;63906;55.686;37.532;2023-04-06T07:19:37;100272.09;;;8.83;56.77
75312;BME280;63906;55.686;37.532;2023-04-06T07:24:37;100226.94;;;8.80;56.32
75312;BME280;63906;55.686;37.532;2023-04-06T07:29:38;100258.47;;;9.04;56.13
75312;BME280;63906;55.686;37.532;2023-04-06T07:34:39;100258.28;;;9.22;55.34
75312;BME280;63906;55.686;37.532;2023-04-06T07:39:39;100249.09;;;9.34;55.34
75312;BME280;63906;55.686;37.532;2023-04-06T07:44:40;100256.94;;;9.59;54.88
75312;BME280;63906;55.686;37.532;2023-04-06T07:49:41;100255.09;;;9.67;54.52
75312;BME280;63906;55.686;37.532;2023-04-06T07:54:41;100262.59;;;9.87;54.69
75312;BME280;63906;55.686;37.532;2023-04-06T07:59:42;100240.88;;;10.01;53.87
75312;BME280;63906;55.686;37.532;2023-04-06T08:04:43;100253.19;;;10.40;52.75
75312;BME280;63906;55.686;37.532;2023-04-06T08:09:44;100251.13;;;10.58;51.81
75312;BME280;63906;55.686;37.532;2023-04-06T08:14:44;100247.66;;;10.81;50.37
75312;BME280;63906;55.686;37.532;2023-04-06T08:19:45;100223.25;;;10.87;49.90
75312;BME280;63906;55.686;37.532;2023-04-06T08:24:45;100228.78;;;11.00;49.07
75312;BME280;63906;55.686;37.532;2023-04-06T08:29:47;100232.16;;;11.23;48.05
75312;BME280;63906;55.686;37.532;2023-04-06T08:34:48;100236.19;;;11.49;47.31
75312;BME280;63906;55.686;37.532;2023-04-06T08:39:48;100215.75;;;11.66;47.30
75312;BME280;63906;55.686;37.532;2023-04-06T08:44:50;100232.47;;;11.73;46.74
75312;BME280;63906;55.686;37.532;2023-04-06T08:49:53;100239.72;;;11.94;46.18
75312;BME280;63906;55.686;37.532;2023-04-06T08:54:54;100219.13;;;12.04;45.53
75312;BME280;63906;55.686;37.532;2023-04-06T08:59:55;100244.56;;;12.26;45.30
75312;BME280;63906;55.686;37.532;2023-04-06T09:04:57;100241.47;;;12.37;44.49
75312;BME280;63906;55.686;37.532;2023-04-06T09:09:57;100233.47;;;12.52;44.98
75312;BME280;63906;55.686;37.532;2023-04-06T09:14:58;100236.44;;;12.85;44.17
75312;BME280;63906;55.686;37.532;2023-04-06T09:20:01;100218.03;;;12.92;42.97
75312;BME280;63906;55.686;37.532;2023-04-06T09:25:03;100222.59;;;13.05;43.46
75312;BME280;63906;55.686;37.532;2023-04-06T09:30:08;100221.56;;;13.27;43.02
75312;BME280;63906;55.686;37.532;2023-04-06T09:35:10;100210.72;;;13.43;42.79
75312;BME280;63906;55.686;37.532;2023-04-06T09:40:11;100217.84;;;13.84;41.21
75312;BME280;63906;55.686;37.532;2023-04-06T09:45:14;100208.94;;;13.92;40.76
75312;BME280;63906;55.686;37.532;2023-04-06T09:50:15;100217.34;;;14.15;40.91
75312;BME280;63906;55.686;37.532;2023-04-06T09:55:27;100194.84;;;14.46;40.15
75312;BME280;63906;55.686;37.532;2023-04-06T10:00:39;100202.63;;;14.47;39.26
75312;BME280;63906;55.686;37.532;2023-04-06T10:05:49;100190.44;;;14.99;37.50
75312;BME280;63906;55.686;37.532;2023-04-06T10:10:51;100189.97;;;17.08;34.38
75312;BME280;63906;55.686;37.532;2023-04-06T10:15:52;100174.00;;;18.60;30.87
75312;BME280;63906;55.686;37.532;2023-04-06T10:20:57;100205.66;;;20.37;28.38
75312;BME280;63906;55.686;37.532;2023-04-06T10:26:01;100193.72;;;22.07;27.12
75312;BME280;63906;55.686;37.532;2023-04-06T10:31:05;100191.44;;;24.01;26.20
75312;BME280;63906;55.686;37.532;2023-04-06T10:41:11;100187.53;;;25.96;21.49
75312;BME280;63906;55.686;37.532;2023-04-06T10:46:12;100191.09;;;26.36;20.43
75312;BME280;63906;55.686;37.532;2023-04-06T10:51:14;100187.28;;;26.76;19.64
75312;BME280;63906;55.686;37.532;2023-04-06T10:56:17;100161.47;;;27.47;18.66
75312;BME280;63906;55.686;37.532;2023-04-06T11:01:20;100163.28;;;29.02;17.91
75312;BME280;63906;55.686;37.532;2023-04-06T11:06:22;100168.81;;;29.38;16.93
75312;BME280;63906;55.686;37.532;2023-04-06T11:11:25;100168.09;;;29.88;16.15
75312;BME280;63906;55.686;37.532;2023-04-06T11:16:31;100163.41;;;29.66;16.14
75312;BME280;63906;55.686;37.532;2023-04-06T11:21:43;100169.00;;;30.33;16.08
75312;BME280;63906;55.686;37.532;2023-04-06T11:31:52;100170.09;;;30.77;15.06
75312;BME280;63906;55.686;37.532;2023-04-06T11:37:01;100167.28;;;29.05;15.96
75312;BME280;63906;55.686;37.532;2023-04-06T11:42:03;100175.31;;;29.10;15.68
75312;BME280;63906;55.686;37.532;2023-04-06T11:47:05;100159.34;;;26.17;17.61
75312;BME280;63906;55.686;37.532;2023-04-06T11:52:27;100173.84;;;22.24;21.20
75312;BME280;63906;55.686;37.532;2023-04-06T11:57:29;100147.00;;;19.62;24.98
75312;BME280;63906;55.686;37.532;2023-04-06T12:02:30;100155.94;;;17.90;27.45
75312;BME280;63906;55.686;37.532;2023-04-06T12:07:32;100169.75;;;17.01;29.28
75312;BME280;63906;55.686;37.532;2023-04-06T12:12:33;100161.00;;;16.37;30.95
75312;BME280;63906;55.686;37.532;2023-04-06T12:17:33;100185.06;;;16.10;32.18
75312;BME280;63906;55.686;37.532;2023-04-06T12:22:34;100127.06;;;15.69;32.17
75312;BME280;63906;55.686;37.532;2023-04-06T12:27:35;100152.41;;;15.45;32.64
75312;BME280;63906;55.686;37.532;2023-04-06T12:32:35;100143.63;;;15.45;32.02
75312;BME280;63906;55.686;37.532;2023-04-06T12:37:36;100165.66;;;15.72;32.64
75312;BME280;63906;55.686;37.532;2023-04-06T12:42:38;100136.19;;;15.80;32.70
75312;BME280;63906;55.686;37.532;2023-04-06T12:47:40;100161.25;;;15.97;32.69
75312;BME280;63906;55.686;37.532;2023-04-06T12:52:41;100122.66;;;18.53;29.12
75312;BME280;63906;55.686;37.532;2023-04-06T12:57:42;100150.19;;;20.78;25.75
75312;BME280;63906;55.686;37.532;2023-04-06T13:02:43;100133.47;;;22.09;23.92
75312;BME280;63906;55.686;37.532;2023-04-06T13:07:46;100142.56;;;22.99;22.54
75312;BME280;63906;55.686;37.532;2023-04-06T13:12:47;100117.13;;;23.75;21.17
75312;BME280;63906;55.686;37.532;2023-04-06T13:17:48;100146.31;;;24.34;21.03
75312;BME280;63906;55.686;37.532;2023-04-06T13:22:48;100112.41;;;24.79;20.08
75312;BME280;63906;55.686;37.532;2023-04-06T13:27:49;100108.00;;;25.23;19.40
75312;BME280;63906;55.686;37.532;2023-04-06T13:32:51;100112.16;;;24.55;20.21
75312;BME280;63906;55.686;37.532;2023-04-06T13:37:51;100106.44;;;24.05;20.58
75312;BME280;63906;55.686;37.532;2023-04-06T13:42:52;100136.81;;;23.33;21.31
75312;BME280;63906;55.686;37.532;2023-04-06T13:47:54;100130.34;;;21.95;23.12
75312;BME280;63906;55.686;37.532;2023-04-06T13:52:55;100122.63;;;20.94;24.07
75312;BME280;63906;55.686;37.532;2023-04-06T13:57:59;100106.63;;;20.32;25.11
75312;BME280;63906;55.686;37.532;2023-04-06T14:02:59;100090.22;;;19.95;25.55
75312;BME280;63906;55.686;37.532;2023-04-06T14:08:01;100107.97;;;19.09;26.68
75312;BME280;63906;55.686;37.532;2023-04-06T14:13:02;100122.09;;;18.74;27.14
75312;BME280;63906;55.686;37.532;2023-04-06T14:18:03;100125.38;;;18.35;27.54
75312;BME280;63906;55.686;37.532;2023-04-06T14:23:04;100133.63;;;18.33;28.04
75312;BME280;63906;55.686;37.532;2023-04-06T14:28:05;100144.22;;;17.91;28.38
75312;BME280;63906;55.686;37.532;2023-04-06T14:33:08;100095.66;;;17.59;29.11
75312;BME280;63906;55.686;37.532;2023-04-06T14:38:08;100086.91;;;17.70;28.15
75312;BME280;63906;55.686;37.532;2023-04-06T14:43:09;100081.34;;;18.44;26.70
75312;BME280;63906;55.686;37.532;2023-04-06T14:48:10;100129.72;;;18.17;26.77
75312;BME280;63906;55.686;37.532;2023-04-06T14:53:12;100132.19;;;17.52;27.55
75312;BME280;63906;55.686;37.532;2023-04-06T14:58:13;100128.75;;;16.90;28.44
75312;BME280;63906;55.686;37.532;2023-04-06T15:03:14;100125.69;;;16.61;28.32
75312;BME280;63906;55.686;37.532;2023-04-06T15:08:15;100114.00;;;15.68;28.65
75312;BME280;63906;55.686;37.532;2023-04-06T15:13:20;100137.19;;;15.07;29.38
75312;BME280;63906;55.686;37.532;2023-04-06T15:18:21;100151.06;;;14.57;30.10
75312;BME280;63906;55.686;37.532;2023-04-06T15:23:22;100145.50;;;14.18;30.64
75312;BME280;63906;55.686;37.532;2023-04-06T15:28:23;100145.34;;;13.79;31.07
75312;BME280;63906;55.686;37.532;2023-04-06T15:33:23;100124.91;;;13.53;31.49
75312;BME280;63906;55.686;37.532;2023-04-06T15:38:24;100151.06;;;13.41;31.51
75312;BME280;63906;55.686;37.532;2023-04-06T15:43:26;100139.16;;;12.96;31.83
75312;BME280;63906;55.686;37.532;2023-04-06T15:48:32;100187.00;;;13.01;32.16
75312;BME280;63906;55.686;37.532;2023-04-06T15:53:36;100172.31;;;12.70;32.19
75312;BME280;63906;55.686;37.532;2023-04-06T15:58:37;100149.72;;;12.46;32.58
75312;BME280;63906;55.686;37.532;2023-04-06T16:03:37;100190.81;;;12.49;32.67
75312;BME280;63906;55.686;37.532;2023-04-06T16:08:39;100200.63;;;12.19;33.53
75312;BME280;63906;55.686;37.532;2023-04-06T16:13:39;100182.22;;;11.74;34.13
75312;BME280;63906;55.686;37.532;2023-04-06T16:18:40;100202.03;;;11.70;34.61
75312;BME280;63906;55.686;37.532;2023-04-06T16:23:40;100184.38;;;11.41;34.19
75312;BME280;63906;55.686;37.532;2023-04-06T16:28:41;100197.19;;;11.29;34.90
75312;BME280;63906;55.686;37.532;2023-04-06T16:33:42;100233.31;;;11.44;34.77
75312;BME280;63906;55.686;37.532;2023-04-06T16:38:43;100192.59;;;10.94;34.55
75312;BME280;63906;55.686;37.532;2023-04-06T16:43:43;100232.88;;;11.17;34.58
75312;BME280;63906;55.686;37.532;2023-04-06T16:48:44;100204.34;;;11.06;33.65
75312;BME280;63906;55.686;37.532;2023-04-06T16:53:45;100221.50;;;11.02;33.98
75312;BME280;63906;55.686;37.532;2023-04-06T16:58:47;100244.09;;;11.19;33.65
75312;BME280;63906;55.686;37.532;2023-04-06T17:03:48;100256.03;;;11.07;33.68
75312;BME280;63906;55.686;37.532;2023-04-06T17:08:53;100256.97;;;10.91;33.54
75312;BME280;63906;55.686;37.532;2023-04-06T17:13:53;100259.16;;;10.88;33.70
75312;BME280;63906;55.686;37.532;2023-04-06T17:18:54;100246.72;;;10.50;34.35
75312;BME280;63906;55.686;37.532;2023-04-06T17:23:54;100273.22;;;10.49;34.56
75312;BME280;63906;55.686;37.532;2023-04-06T17:28:55;100281.38;;;10.62;33.89
75312;BME280;63906;55.686;37.532;2023-04-06T17:33:56;100281.78;;;10.43;34.49
75312;BME280;63906;55.686;37.532;2023-04-06T17:38:56;100295.38;;;10.23;34.29
75312;BME280;63906;55.686;37.532;2023-04-06T17:43:57;100288.88;;;9.95;34.35
75312;BME280;63906;55.686;37.532;2023-04-06T17:48:58;100273.16;;;9.62;34.30
75312;BME280;63906;55.686;37.532;2023-04-06T17:54:01;100295.22;;;9.53;34.67
75312;BME280;63906;55.686;37.532;2023-04-06T17:59:04;100289.63;;;9.64;34.00
75312;BME280;63906;55.686;37.532;2023-04-06T18:04:09;100295.22;;;9.53;34.31
75312;BME280;63906;55.686;37.532;2023-04-06T18:09:10;100320.34;;;9.48;34.39
75312;BME280;63906;55.686;37.532;2023-04-06T18:14:11;100311.31;;;9.58;34.35
75312;BME280;63906;55.686;37.532;2023-04-06T18:19:12;100304.41;;;9.65;33.71
75312;BME280;63906;55.686;37.532;2023-04-06T18:24:13;100329.22;;;9.63;33.67
75312;BME280;63906;55.686;37.532;2023-04-06T18:29:14;100308.66;;;9.50;33.21
75312;BME280;63906;55.686;37.532;2023-04-06T18:34:15;100307.38;;;9.05;33.75
75312;BME280;63906;55.686;37.532;2023-04-06T18:39:16;100304.22;;;8.94;33.87
75312;BME280;63906;55.686;37.532;2023-04-06T18:44:17;100331.81;;;8.98;34.48
75312;BME280;63906;55.686;37.532;2023-04-06T18:49:17;100346.94;;;9.04;34.30
75312;BME280;63906;55.686;37.532;2023-04-06T18:54:19;100352.31;;;8.94;34.49
75312;BME280;63906;55.686;37.532;2023-04-06T18:59:20;100344.09;;;8.81;34.51
75312;BME280;63906;55.686;37.532;2023-04-06T19:04:21;100355.84;;;8.69;35.17
75312;BME280;63906;55.686;37.532;2023-04-06T19:09:21;100348.63;;;8.62;34.98
75312;BME280;63906;55.686;37.532;2023-04-06T19:14:22;100335.06;;;8.33;35.29
75312;BME280;63906;55.686;37.532;2023-04-06T19:19:22;100319.41;;;8.15;35.85
75312;BME280;63906;55.686;37.532;2023-04-06T19:24:23;100347.13;;;8.26;35.60
75312;BME280;63906;55.686;37.532;2023-04-06T19:29:24;100335.56;;;8.02;35.01
75312;BME280;63906;55.686;37.532;2023-04-06T19:34:25;100334.94;;;8.08;35.59
75312;BME280;63906;55.686;37.532;2023-04-06T19:39:25;100349.06;;;8.16;35.40
75312;BME280;63906;55.686;37.532;2023-04-06T19:44:26;100349.69;;;8.09;35.59
75312;BME280;63906;55.686;37.532;2023-04-06T19:49:27;100330.88;;;7.88;35.57
75312;BME280;63906;55.686;37.532;2023-04-06T19:54:27;100347.16;;;8.00;35.95
75312;BME280;63906;55.686;37.532;2023-04-06T19:59:28;100348.59;;;7.94;36.09
75312;BME280;63906;55.686;37.532;2023-04-06T20:04:30;100350.59;;;7.74;36.42
75312;BME280;63906;55.686;37.532;2023-04-06T20:09:30;100356.53;;;7.76;36.50
75312;BME280;63906;55.686;37.532;2023-04-06T20:14:31;100336.34;;;7.51;36.83
75312;BME280;63906;55.686;37.532;2023-04-06T20:19:31;100351.84;;;7.44;37.18
75312;BME280;63906;55.686;37.532;2023-04-06T20:24:32;100367.66;;;7.35;37.29
75312;BME280;63906;55.686;37.532;2023-04-06T20:29:32;100346.66;;;7.09;38.37
75312;BME280;63906;55.686;37.532;2023-04-06T20:34:33;100340.06;;;7.05;37.89
75312;BME280;63906;55.686;37.532;2023-04-06T20:39:34;100364.28;;;7.24;38.09
75312;BME280;63906;55.686;37.532;2023-04-06T20:44:36;100365.06;;;7.17;37.88
75312;BME280;63906;55.686;37.532;2023-04-06T20:49:36;100339.63;;;6.91;38.18
75312;BME280;63906;55.686;37.532;2023-04-06T20:54:37;100359.06;;;7.07;38.35
75312;BME280;63906;55.686;37.532;2023-04-06T20:59:37;100359.97;;;6.97;39.24
75312;BME280;63906;55.686;37.532;2023-04-06T21:04:38;100369.41;;;6.81;39.18
75312;BME280;63906;55.686;37.532;2023-04-06T21:09:41;100375.72;;;6.88;39.33
75312;BME280;63906;55.686;37.532;2023-04-06T21:14:42;100379.72;;;6.82;39.53
75312;BME280;63906;55.686;37.532;2023-04-06T21:19:42;100356.66;;;6.50;40.29
75312;BME280;63906;55.686;37.532;2023-04-06T21:24:43;100368.22;;;6.47;39.76
75312;BME280;63906;55.686;37.532;2023-04-06T21:29:44;100383.63;;;6.51;40.88
75312;BME280;63906;55.686;37.532;2023-04-06T21:34:47;100389.16;;;6.47;40.64
75312;BME280;63906;55.686;37.532;2023-04-06T21:39:48;100392.53;;;6.30;41.52
75312;BME280;63906;55.686;37.532;2023-04-06T21:44:49;100368.66;;;6.06;40.96
75312;BME280;63906;55.686;37.532;2023-04-06T21:49:49;100363.03;;;5.81;42.21
75312;BME280;63906;55.686;37.532;2023-04-06T21:54:50;100373.63;;;5.99;41.41
75312;BME280;63906;55.686;37.532;2023-04-06T21:59:50;100376.13;;;5.91;41.56
75312;BME280;63906;55.686;37.532;2023-04-06T22:04:51;100394.53;;;5.99;42.02
75312;BME280;63906;55.686;37.532;2023-04-06T22:09:51;100388.50;;;5.99;42.19
75312;BME280;63906;55.686;37.532;2023-04-06T22:14:52;100349.06;;;5.63;41.95
75312;BME280;63906;55.686;37.532;2023-04-06T22:19:52;100390.28;;;5.79;42.73
75312;BME280;63906;55.686;37.532;2023-04-06T22:24:53;100379.72;;;5.51;43.10
75312;BME280;63906;55.686;37.532;2023-04-06T22:29:54;100360.19;;;5.46;42.90
75312;BME280;63906;55.686;37.532;2023-04-06T22:34:54;100357.19;;;5.50;42.53
75312;BME280;63906;55.686;37.532;2023-04-06T22:39:55;100351.28;;;5.19;43.61
75312;BME280;63906;55.686;37.532;2023-04-06T22:44:55;100384.69;;;5.16;43.81
75312;BME280;63906;55.686;37.532;2023-04-06T22:49:56;100389.63;;;5.28;43.71
75312;BME280;63906;55.686;37.532;2023-04-06T22:54:56;100384.13;;;5.22;44.25
75312;BME280;63906;55.686;37.532;2023-04-06T22:59:57;100337.41;;;5.09;44.09
75312;BME280;63906;55.686;37.532;2023-04-06T23:04:58;100363.50;;;4.99;45.18
75312;BME280;63906;55.686;37.532;2023-04-06T23:09:58;100360.06;;;4.99;44.59
75312;BME280;63906;55.686;37.532;2023-04-06T23:14:59;100315.69;;;4.60;44.75
75312;BME280;63906;55.686;37.532;2023-04-06T23:19:59;100386.72;;;5.12;44.91
75312;BME280;63906;55.686;37.532;2023-04-06T23:25:00;100392.34;;;5.07;44.79
75312;BME280;63906;55.686;37.532;2023-04-06T23:30:00;100313.75;;;4.62;45.34
75312;BME280;63906;55.686;37.532;2023-04-06T23:35:01;100359.63;;;4.84;45.16
75312;BME280;63906;55.686;37.532;2023-04-06T23:40:02;100330.50;;;4.69;45.18
75312;BME280;63906;55.686;37.532;2023-04-06T23:45:04;100367.63;;;4.92;45.39
75312;BME280;63906;55.686;37.532;2023-04-06T23:50:05;100360.34;;;4.86;45.99
75312;BME280;63906;55.686;37.532;2023-04-06T23:55:06;100337.22;;;4.62;46.44
